Time;durP1;ratioP1;P1;durP2;ratioP2;P2;SDS_P1;SDS_P2;PMS_P1;PMS_P2;Temp;Humidity;BMP_temperature;BMP_pressure;BME280_temperature;BME280_humidity;BME280_pressure;Samples;Min_cycle;Max_cycle;Signal;HPM_P1;HPM_P2
2022/03/11 00:01:50;;;;;;;17.95;8.23;;;;;;;6.22;64.83;101500.31;5056512;28;20036;-83
2022/03/11 00:04:16;;;;;;;16.13;7.50;;;;;;;6.10;63.94;101495.47;5059164;28;20052;-82
2022/03/11 00:06:41;;;;;;;19.00;7.75;;;;;;;6.09;64.89;101496.44;5059002;28;20538;-82
2022/03/11 00:09:07;;;;;;;16.42;8.52;;;;;;;5.93;65.65;101477.25;5038736;28;20041;-83
2022/03/11 00:11:32;;;;;;;18.25;7.32;;;;;;;6.09;64.74;101501.88;5039077;28;20037;-83
2022/03/11 00:13:58;;;;;;;20.92;7.97;;;;;;;5.96;65.48;101498.88;5038227;28;20022;-83
2022/03/11 00:16:23;;;;;;;20.13;8.55;;;;;;;6.10;64.85;101496.38;5066101;28;20060;-83
2022/03/11 00:18:50;;;;;;;19.60;8.57;;;;;;;6.01;65.42;101489.53;5038975;28;20041;-83
2022/03/11 00:21:15;;;;;;;24.40;7.97;;;;;;;5.71;66.25;101467.47;5055409;28;20029;-83
2022/03/11 00:23:42;;;;;;;16.42;8.35;;;;;;;5.82;65.85;101496.81;5057850;28;20032;-84
2022/03/11 00:26:09;;;;;;;23.80;8.25;;;;;;;5.76;67.93;101494.41;5059447;28;20036;-84
2022/03/11 00:28:35;;;;;;;16.10;8.18;;;;;;;5.66;69.05;101474.97;5059850;28;20032;-84
2022/03/11 00:31:01;;;;;;;18.90;8.95;;;;;;;5.66;68.16;101489.41;5054392;28;20033;-84
2022/03/11 00:33:27;;;;;;;18.80;8.40;;;;;;;5.52;68.14;101476.47;5043334;28;20040;-84
2022/03/11 00:35:52;;;;;;;17.75;7.75;;;;;;;5.56;66.99;101490.81;5059991;28;20029;-82
2022/03/11 00:38:18;;;;;;;21.23;8.85;;;;;;;5.50;68.57;101482.97;5058746;28;20079;-82
2022/03/11 00:40:43;;;;;;;16.13;7.38;;;;;;;5.48;68.56;101477.59;5060124;28;20048;-83
2022/03/11 00:43:09;;;;;;;17.70;8.20;;;;;;;5.42;68.04;101471.59;5058415;28;20617;-82
2022/03/11 00:45:35;;;;;;;16.98;7.80;;;;;;;5.51;67.19;101491.03;5075222;28;20379;-83
2022/03/11 00:48:00;;;;;;;16.52;8.48;;;;;;;5.36;69.40;101471.88;5060182;28;20082;-83
2022/03/11 00:50:26;;;;;;;20.92;7.25;;;;;;;5.44;68.05;101480.53;5076432;28;20029;-83
2022/03/11 00:52:52;;;;;;;25.50;8.07;;;;;;;5.29;69.46;101476.69;5075689;28;20549;-83
2022/03/11 00:55:18;;;;;;;20.50;8.73;;;;;;;5.31;68.91;101482.94;5060032;28;20036;-83
2022/03/11 00:57:44;;;;;;;21.73;8.43;;;;;;;5.26;69.48;101474.13;5060058;28;20021;-83
2022/03/11 01:00:10;;;;;;;19.65;8.02;;;;;;;5.25;70.13;101481.41;5043668;28;20048;-83
2022/03/11 01:02:36;;;;;;;15.93;7.93;;;;;;;5.22;68.72;101478.81;5059232;28;20078;-83
2022/03/11 01:05:06;;;;;;;15.52;8.25;;;;;;;5.14;69.51;101462.03;5058796;28;20067;-83
2022/03/11 01:07:33;;;;;;;17.20;7.70;;;;;;;5.07;70.68;101468.69;5076013;28;20073;-83
2022/03/11 01:09:58;;;;;;;20.50;8.35;;;;;;;4.93;72.51;101461.19;5043356;28;20029;-83
2022/03/11 01:12:24;;;;;;;16.60;8.15;;;;;;;4.83;73.84;101458.00;5042354;28;20037;-83
2022/03/11 01:14:50;;;;;;;19.77;8.32;;;;;;;4.82;72.39;101456.25;5027061;28;20131;-83
2022/03/11 01:17:16;;;;;;;18.83;8.32;;;;;;;4.77;72.58;101447.41;5059743;28;20079;-83
2022/03/11 01:19:42;;;;;;;22.25;8.27;;;;;;;4.72;74.20;101450.38;5059186;28;20060;-83
2022/03/11 01:22:07;;;;;;;16.00;7.88;;;;;;;4.76;72.17;101456.53;5059177;28;20029;-83
2022/03/11 01:24:33;;;;;;;18.80;7.88;;;;;;;4.82;72.25;101456.25;5051679;28;20087;-82
2022/03/11 01:26:59;;;;;;;16.38;7.93;;;;;;;4.70;72.94;101445.94;5042486;28;20045;-83
2022/03/11 01:29:25;;;;;;;18.25;8.98;;;;;;;4.70;72.77;101441.38;5059615;28;20100;-83
2022/03/11 01:31:51;;;;;;;15.02;7.93;;;;;;;4.95;69.99;101445.69;5059437;28;20036;-83
2022/03/11 01:34:16;;;;;;;19.67;7.93;;;;;;;4.98;70.03;101434.69;5079180;28;20033;-82
2022/03/11 01:36:42;;;;;;;16.90;7.95;;;;;;;5.06;69.22;101437.06;5062999;28;20387;-83
2022/03/11 01:39:07;;;;;;;17.15;8.43;;;;;;;5.19;67.77;101427.38;5061049;28;20112;-82
2022/03/11 01:41:33;;;;;;;19.65;8.05;;;;;;;5.28;66.99;101421.53;5062655;28;20108;-83
2022/03/11 01:44:01;;;;;;;17.08;7.93;;;;;;;5.38;66.22;101407.50;5062019;28;20059;-82
2022/03/11 01:46:28;;;;;;;17.52;7.65;;;;;;;5.47;66.21;101417.91;5056869;28;20075;-82
2022/03/11 01:48:54;;;;;;;16.92;8.07;;;;;;;5.55;65.63;101418.44;5062149;28;20476;-82
2022/03/11 01:51:20;;;;;;;16.05;7.78;;;;;;;5.66;64.83;101415.19;5078339;28;20025;-82
2022/03/11 01:53:46;;;;;;;17.02;8.05;;;;;;;5.61;65.74;101406.41;5045280;28;20680;-82
2022/03/11 01:56:13;;;;;;;15.35;7.03;;;;;;;5.42;65.31;101374.69;5061015;28;20045;-83
2022/03/11 01:58:39;;;;;;;16.65;7.80;;;;;;;5.63;65.10;101399.91;5044869;28;20423;-82
2022/03/11 02:01:04;;;;;;;16.00;7.55;;;;;;;5.62;65.34;101391.84;5061356;28;20120;-83
2022/03/11 02:03:30;;;;;;;16.73;7.68;;;;;;;5.50;65.27;101382.47;5079059;28;20094;-82
2022/03/11 02:05:55;;;;;;;16.10;8.48;;;;;;;5.57;64.97;101392.06;5044865;28;20174;-83
2022/03/11 02:08:21;;;;;;;17.88;8.57;;;;;;;5.50;65.60;101387.91;5060897;28;20035;-82
2022/03/11 02:10:46;;;;;;;17.65;7.95;;;;;;;5.50;66.02;101377.03;5055779;28;20025;-82
2022/03/11 02:13:12;;;;;;;17.23;8.18;;;;;;;5.46;65.34;101381.75;5058622;28;20039;-82
2022/03/11 02:15:37;;;;;;;13.68;7.20;;;;;;;5.52;65.27;101378.69;5055449;28;20025;-83
2022/03/11 02:18:03;;;;;;;19.05;8.32;;;;;;;5.42;64.68;101352.97;5056494;28;20041;-83
2022/03/11 02:20:29;;;;;;;19.38;8.07;;;;;;;5.55;65.45;101374.97;5036232;28;20044;-83
2022/03/11 02:22:57;;;;;;;19.95;8.02;;;;;;;5.42;65.69;101352.09;5061796;28;20036;-83
2022/03/11 02:25:22;;;;;;;17.05;7.90;;;;;;;5.35;65.40;101340.66;5077824;28;20033;-83
2022/03/11 02:27:48;;;;;;;14.93;7.40;;;;;;;5.26;65.55;101328.44;5044505;28;20017;-83
2022/03/11 02:30:16;;;;;;;16.08;7.60;;;;;;;5.55;65.38;101366.81;5060333;28;20114;-83
2022/03/11 02:32:42;;;;;;;16.20;7.82;;;;;;;5.49;65.15;101358.97;5058672;28;20040;-83
2022/03/11 02:35:08;;;;;;;16.15;8.05;;;;;;;5.60;64.56;101350.31;5076276;28;20037;-83
2022/03/11 02:37:34;;;;;;;18.95;7.85;;;;;;;5.52;64.49;101342.53;5041108;28;20029;-83
2022/03/11 02:39:59;;;;;;;15.45;7.65;;;;;;;5.56;65.11;101362.25;5059713;28;20032;-83
2022/03/11 02:42:25;;;;;;;25.85;7.80;;;;;;;5.58;65.81;101352.22;5059633;28;20023;-83
2022/03/11 02:44:50;;;;;;;14.77;6.97;;;;;;;5.58;64.24;101344.94;5076513;28;20032;-83
2022/03/11 02:47:16;;;;;;;16.08;7.70;;;;;;;5.50;64.80;101344.44;5043317;28;20081;-83
2022/03/11 02:49:43;;;;;;;15.10;6.97;;;;;;;5.59;64.82;101345.81;5043226;28;20025;-84
2022/03/11 02:52:08;;;;;;;14.68;7.70;;;;;;;5.60;64.55;101351.16;5059696;28;20032;-83
2022/03/11 02:54:34;;;;;;;18.15;7.78;;;;;;;5.62;63.90;101343.81;5076190;28;20504;-83
2022/03/11 02:56:59;;;;;;;16.30;7.22;;;;;;;5.63;64.09;101348.31;5059393;28;20087;-83
2022/03/11 02:59:25;;;;;;;16.63;8.10;;;;;;;5.50;64.13;101339.00;5075913;28;20037;-83
2022/03/11 03:01:50;;;;;;;16.88;7.35;;;;;;;5.51;64.27;101343.50;5059309;28;20029;-83
2022/03/11 03:04:16;;;;;;;18.65;7.38;;;;;;;5.45;65.43;101341.97;5061306;28;20053;-84
2022/03/11 03:06:41;;;;;;;15.30;7.50;;;;;;;5.41;65.63;101339.47;5042926;28;20045;-84
2022/03/11 03:09:07;;;;;;;15.23;7.80;;;;;;;5.37;65.69;101343.31;5076474;28;20025;-83
2022/03/11 03:11:33;;;;;;;17.50;7.63;;;;;;;5.37;65.37;101335.16;5059761;28;20449;-83
2022/03/11 03:13:58;;;;;;;14.10;7.25;;;;;;;5.27;64.83;101305.75;5060106;28;20088;-83
2022/03/11 03:16:24;;;;;;;16.98;7.15;;;;;;;5.45;64.34;101335.66;5056978;28;20039;-83
2022/03/11 03:18:49;;;;;;;14.70;7.07;;;;;;;5.40;64.51;101324.16;5042909;28;20021;-84
2022/03/11 03:21:15;;;;;;;18.45;7.63;;;;;;;5.45;64.25;101330.22;5060088;28;20036;-83
2022/03/11 03:23:40;;;;;;;17.77;7.68;;;;;;;5.45;64.22;101330.22;5076475;28;20560;-84
2022/03/11 03:26:06;;;;;;;13.13;7.10;;;;;;;5.40;64.38;101338.59;5060074;28;20039;-84
2022/03/11 03:28:31;;;;;;;30.05;7.75;;;;;;;5.42;64.84;101328.53;5060192;28;20029;-84
2022/03/11 03:30:57;;;;;;;14.30;7.05;;;;;;;5.35;64.61;101327.09;5046919;28;20057;-84
2022/03/11 03:33:22;;;;;;;15.52;6.53;;;;;;;5.30;64.55;101310.16;5039459;28;20061;-84
2022/03/11 03:35:48;;;;;;;15.10;7.32;;;;;;;5.51;63.31;101317.22;5042525;28;20115;-84
2022/03/11 03:38:13;;;;;;;17.35;6.63;;;;;;;5.56;63.29;101326.94;5076791;28;20049;-84
2022/03/11 03:40:39;;;;;;;14.38;6.75;;;;;;;5.43;63.65;101321.28;5059295;28;20055;-84
2022/03/11 03:43:05;;;;;;;12.85;7.28;;;;;;;5.44;63.64;101317.59;5042013;28;20044;-83
2022/03/11 03:45:31;;;;;;;15.63;6.78;;;;;;;5.46;63.40;101313.84;5061143;28;20032;-84
2022/03/11 03:47:56;;;;;;;28.00;6.82;;;;;;;5.48;63.01;101325.50;5059154;28;20033;-84
2022/03/11 03:50:22;;;;;;;11.40;6.30;;;;;;;5.39;63.41;101311.50;5043295;28;20392;-83
2022/03/11 03:52:47;;;;;;;18.23;7.10;;;;;;;5.33;63.66;101307.28;5058712;28;20048;-84
2022/03/11 03:55:13;;;;;;;14.63;6.55;;;;;;;5.32;64.34;101314.53;5059412;28;20039;-82
2022/03/11 03:57:39;;;;;;;15.60;6.88;;;;;;;5.30;64.48;101315.59;5059664;28;20084;-83
2022/03/11 04:00:06;;;;;;;13.20;6.70;;;;;;;5.36;64.64;101315.25;5076551;28;20041;-83
2022/03/11 04:02:32;;;;;;;14.43;6.78;;;;;;;5.29;64.45;101311.97;5060049;28;20025;-83
2022/03/11 04:04:58;;;;;;;15.23;6.28;;;;;;;5.25;64.50;101315.81;5042387;28;20051;-82
2022/03/11 04:07:24;;;;;;;12.35;6.00;;;;;;;5.29;64.86;101313.81;5041535;28;20043;-82
2022/03/11 04:09:49;;;;;;;19.85;7.28;;;;;;;5.27;64.17;101313.88;5041284;28;20402;-82
2022/03/11 04:12:15;;;;;;;14.55;6.93;;;;;;;5.23;64.45;101309.56;5060546;28;20030;-83
2022/03/11 04:14:41;;;;;;;11.45;6.13;;;;;;;5.25;64.45;101309.50;5021863;28;20037;-82
2022/03/11 04:17:06;;;;;;;18.65;7.18;;;;;;;5.17;64.84;101312.59;5054338;28;20120;-82
2022/03/11 04:19:31;;;;;;;9.73;6.15;;;;;;;5.22;64.23;101306.94;5058510;28;20036;-82
2022/03/11 04:21:57;;;;;;;11.73;6.20;;;;;;;5.17;65.10;101309.00;5046917;28;20025;-82
2022/03/11 04:24:23;;;;;;;12.98;6.63;;;;;;;5.14;65.52;101308.19;5057079;28;20067;-82
2022/03/11 04:26:49;;;;;;;13.60;6.60;;;;;;;5.13;65.65;101321.81;5039628;28;20089;-83
2022/03/11 04:29:14;;;;;;;13.98;6.55;;;;;;;5.05;64.86;101294.19;5047584;28;20064;-82
2022/03/11 04:31:41;;;;;;;18.80;6.63;;;;;;;4.96;65.47;101281.94;5053467;28;20112;-83
2022/03/11 04:34:06;;;;;;;12.52;6.70;;;;;;;5.20;64.73;101315.16;5048337;28;20064;-82
2022/03/11 04:36:41;;;;;;;16.92;6.47;;;;;;;5.22;65.10;101307.81;5043781;28;20039;-82
2022/03/11 04:39:07;;;;;;;11.57;6.28;;;;;;;5.19;65.70;101305.25;5057775;28;20032;-82
2022/03/11 04:41:35;;;;;;;14.20;5.97;;;;;;;5.11;66.04;101304.75;5052242;28;20029;-83
2022/03/11 04:44:00;;;;;;;15.05;6.30;;;;;;;5.13;65.44;101298.28;5058292;28;20067;-82
2022/03/11 04:46:26;;;;;;;11.93;6.20;;;;;;;5.18;65.88;101300.75;5042107;28;20041;-82
2022/03/11 04:48:51;;;;;;;15.25;7.03;;;;;;;5.23;65.70;101300.53;5047897;28;20021;-82
2022/03/11 04:51:17;;;;;;;16.10;6.72;;;;;;;5.22;65.71;101306.94;5058037;28;20377;-83
2022/03/11 04:53:42;;;;;;;15.35;7.18;;;;;;;5.22;66.13;101299.66;5057493;28;20640;-83
2022/03/11 04:56:08;;;;;;;16.90;6.85;;;;;;;5.14;66.50;101299.16;5056976;28;20064;-81
2022/03/11 04:58:33;;;;;;;13.07;6.75;;;;;;;5.07;67.22;101305.84;5056847;28;20528;-80
2022/03/11 05:00:59;;;;;;;13.50;6.30;;;;;;;5.04;67.30;101300.56;5058143;28;20107;-80
2022/03/11 05:03:25;;;;;;;13.82;6.18;;;;;;;5.09;67.01;101302.09;5059137;28;20021;-81
2022/03/11 05:05:50;;;;;;;14.45;7.28;;;;;;;5.10;67.19;101300.25;5061853;28;20045;-80
2022/03/11 05:08:16;;;;;;;12.27;6.35;;;;;;;5.01;67.60;101293.44;5061263;28;20077;-80
2022/03/11 05:10:41;;;;;;;14.23;6.07;;;;;;;5.02;67.35;101284.38;5078009;28;20020;-81
2022/03/11 05:13:06;;;;;;;15.52;6.90;;;;;;;5.07;67.48;101298.59;5062442;28;20040;-81
2022/03/11 05:15:32;;;;;;;15.30;6.90;;;;;;;5.01;67.77;101285.31;5062508;28;20039;-81
2022/03/11 05:17:57;;;;;;;11.65;6.72;;;;;;;4.97;68.42;101287.31;5063118;28;20107;-80
2022/03/11 05:20:23;;;;;;;15.63;7.45;;;;;;;5.08;68.17;101292.22;5062212;28;20021;-80
2022/03/11 05:22:50;;;;;;;12.30;6.60;;;;;;;4.97;68.49;101289.16;5078619;28;20033;-79
2022/03/11 05:25:16;;;;;;;15.43;6.72;;;;;;;5.02;68.57;101289.81;5060251;28;20106;-80
2022/03/11 05:27:41;;;;;;;16.83;7.10;;;;;;;5.01;68.46;101282.59;5061976;28;20044;-81
2022/03/11 05:30:10;;;;;;;11.57;6.00;;;;;;;5.09;67.81;101293.09;5059095;28;20485;-80
2022/03/11 05:32:43;;;;;;;15.50;6.72;;;;;;;5.07;68.46;101289.56;5078449;28;20037;-79
2022/03/11 05:35:08;;;;;;;14.02;6.80;;;;;;;5.16;67.93;101283.69;5060149;28;20092;-79
2022/03/11 05:37:34;;;;;;;14.52;6.70;;;;;;;5.17;68.49;101296.31;5041379;28;20068;-80
2022/03/11 05:40:00;;;;;;;14.27;7.28;;;;;;;5.03;68.89;101293.38;5058425;28;20025;-80
2022/03/11 05:42:25;;;;;;;15.60;7.07;;;;;;;5.16;68.15;101283.69;5060997;28;20036;-79
2022/03/11 05:44:50;;;;;;;17.90;7.07;;;;;;;4.99;68.59;101275.50;5077585;28;20036;-80
2022/03/11 05:47:16;;;;;;;12.23;6.35;;;;;;;5.04;68.53;101265.31;5062020;28;20023;-79
2022/03/11 05:49:41;;;;;;;21.05;7.15;;;;;;;4.92;69.40;101248.66;5044175;28;20104;-80
2022/03/11 05:52:07;;;;;;;14.73;6.72;;;;;;;5.00;68.84;101261.88;5061218;28;20029;-79
2022/03/11 05:54:32;;;;;;;12.02;6.97;;;;;;;5.19;68.33;101264.53;5062326;28;20060;-79
2022/03/11 05:56:59;;;;;;;15.75;6.68;;;;;;;5.12;69.01;101271.22;5077819;28;20080;-79
2022/03/11 05:59:25;;;;;;;20.63;7.32;;;;;;;5.10;68.90;101273.13;5078266;28;20070;-79
2022/03/11 06:01:51;;;;;;;17.67;7.53;;;;;;;5.14;69.66;101269.31;5061958;28;20052;-78
2022/03/11 06:04:16;;;;;;;15.18;7.15;;;;;;;4.97;70.38;101271.03;5057492;28;20053;-79
2022/03/11 06:06:42;;;;;;;20.05;7.05;;;;;;;4.83;71.05;101256.38;5044872;28;20381;-80
2022/03/11 06:09:08;;;;;;;14.77;7.45;;;;;;;5.01;70.50;101271.75;5061422;28;20060;-80
2022/03/11 06:11:34;;;;;;;17.25;7.15;;;;;;;5.09;69.68;101265.94;5060759;28;20045;-82
2022/03/11 06:14:00;;;;;;;23.33;7.70;;;;;;;5.11;70.11;101264.03;5048316;28;20051;-80
2022/03/11 06:16:26;;;;;;;20.15;7.43;;;;;;;5.01;70.38;101262.72;5019257;28;20109;-81
2022/03/11 06:18:51;;;;;;;17.63;7.60;;;;;;;5.01;70.49;101258.19;5050976;28;20040;-79
2022/03/11 06:21:17;;;;;;;17.65;7.57;;;;;;;5.00;71.10;101261.88;5051509;28;20033;-79
2022/03/11 06:23:42;;;;;;;15.73;7.32;;;;;;;5.08;70.22;101262.38;5047426;28;20518;-82
2022/03/11 06:26:08;;;;;;;16.38;7.28;;;;;;;5.13;70.19;101264.81;5051023;28;20116;-79
2022/03/11 06:28:33;;;;;;;17.20;7.63;;;;;;;5.22;69.61;101271.66;5037358;28;20040;-80
2022/03/11 06:30:59;;;;;;;15.45;6.97;;;;;;;5.21;70.62;101281.59;5044279;28;20133;-79
2022/03/11 06:33:24;;;;;;;22.88;8.00;;;;;;;5.24;70.60;101272.44;5050868;28;20108;-79
2022/03/11 06:35:51;;;;;;;14.23;7.28;;;;;;;5.25;70.51;101285.94;5057240;28;20044;-77
2022/03/11 06:38:17;;;;;;;17.02;7.63;;;;;;;5.31;70.65;101290.16;5072585;28;20777;-80
2022/03/11 06:40:43;;;;;;;17.70;7.45;;;;;;;5.39;69.59;101284.38;5023829;28;20402;-79
2022/03/11 06:43:08;;;;;;;15.13;7.50;;;;;;;5.37;70.06;101295.28;5052520;28;20029;-78
2022/03/11 06:45:35;;;;;;;20.30;7.25;;;;;;;5.43;69.65;101285.97;5041217;28;20040;-81
2022/03/11 06:48:01;;;;;;;15.82;8.13;;;;;;;5.44;69.77;101282.28;5057927;28;20036;-80
2022/03/11 06:50:26;;;;;;;18.85;8.20;;;;;;;5.57;69.75;101296.13;5057429;28;20044;-80
2022/03/11 06:52:52;;;;;;;17.38;8.02;;;;;;;5.58;69.70;101271.59;5040611;28;20427;-80
2022/03/11 06:55:19;;;;;;;14.40;8.35;;;;;;;5.86;68.93;101272.88;5040552;28;20533;-81
2022/03/11 06:57:45;;;;;;;16.55;8.45;;;;;;;5.96;67.98;101276.91;5060641;28;20488;-80
2022/03/11 07:00:13;;;;;;;16.63;8.25;;;;;;;6.04;68.36;101280.09;5041610;28;20036;-81
2022/03/11 07:02:40;;;;;;;18.27;8.55;;;;;;;6.11;67.20;101280.63;5060358;28;20033;-82
2022/03/11 07:05:07;;;;;;;19.40;9.27;;;;;;;6.22;66.77;101278.22;5075614;28;20063;-82
2022/03/11 07:07:33;;;;;;;16.52;8.65;;;;;;;6.34;67.19;101282.09;5060359;28;20041;-82
2022/03/11 07:10:00;;;;;;;17.17;8.32;;;;;;;6.33;67.37;101271.31;5045159;28;20047;-82
2022/03/11 07:12:31;;;;;;;16.73;8.07;;;;;;;6.56;67.26;101278.19;5060718;28;20029;-83
2022/03/11 07:14:59;;;;;;;17.55;8.77;;;;;;;6.52;66.46;101285.66;5055569;28;20075;-81
2022/03/11 07:17:24;;;;;;;15.65;7.03;;;;;;;6.48;66.46;101277.75;5058160;28;20032;-83
2022/03/11 07:19:50;;;;;;;18.83;8.27;;;;;;;6.55;65.41;101276.47;5075919;28;20075;-81
2022/03/11 07:22:16;;;;;;;20.83;8.65;;;;;;;6.51;65.99;101267.59;5038578;28;20033;-81
2022/03/11 07:24:41;;;;;;;16.50;7.65;;;;;;;6.69;65.44;101272.94;5030853;28;20029;-80
2022/03/11 07:27:07;;;;;;;21.73;9.30;;;;;;;6.63;64.99;101269.63;5056771;28;20056;-79
2022/03/11 07:29:32;;;;;;;22.75;7.80;;;;;;;6.62;64.54;101270.59;5055717;28;20041;-79
2022/03/11 07:31:58;;;;;;;17.13;8.30;;;;;;;6.71;65.26;101262.88;5039047;28;20047;-79
2022/03/11 07:34:23;;;;;;;22.60;8.55;;;;;;;6.75;64.74;101259.00;5058671;28;20047;-79
2022/03/11 07:36:49;;;;;;;17.30;8.27;;;;;;;6.87;64.17;101258.31;5056934;28;20043;-79
2022/03/11 07:39:15;;;;;;;24.85;8.50;;;;;;;7.08;64.07;101271.66;5058921;28;20045;-79
2022/03/11 07:41:41;;;;;;;21.98;8.48;;;;;;;7.05;63.48;101272.72;5072169;28;20033;-80
2022/03/11 07:44:06;;;;;;;19.40;9.30;;;;;;;7.06;63.36;101269.00;5038692;28;20096;-80
2022/03/11 07:46:32;;;;;;;18.85;8.73;;;;;;;7.02;64.67;101266.56;5057312;28;20044;-80
2022/03/11 07:48:58;;;;;;;16.58;8.52;;;;;;;7.25;63.65;101263.38;5055227;28;20036;-81
2022/03/11 07:51:25;;;;;;;18.02;9.23;;;;;;;7.20;64.52;101264.59;5070347;28;20628;-83
2022/03/11 07:53:51;;;;;;;18.40;8.43;;;;;;;7.52;63.34;101260.00;5056942;28;20043;-83
2022/03/11 07:56:17;;;;;;;21.90;9.93;;;;;;;7.62;62.65;101250.28;5060832;28;20033;-82
2022/03/11 07:58:42;;;;;;;17.85;9.32;;;;;;;7.66;62.64;101253.72;5034083;28;20116;-81
2022/03/11 08:01:09;;;;;;;17.35;9.02;;;;;;;7.78;62.05;101246.63;5075062;28;20453;-82
2022/03/11 08:03:37;;;;;;;20.30;8.43;;;;;;;7.85;61.34;101243.41;5059109;28;20437;-84
2022/03/11 08:06:04;;;;;;;18.85;9.40;;;;;;;7.93;60.53;101248.41;5074566;28;20080;-82
2022/03/11 08:08:29;;;;;;;22.23;9.00;;;;;;;8.04;61.08;101256.81;5058320;28;20362;-80
2022/03/11 08:10:55;;;;;;;27.10;9.40;;;;;;;8.13;60.15;101244.44;5059968;28;20072;-80
2022/03/11 08:13:21;;;;;;;18.55;9.88;;;;;;;8.12;60.86;101248.16;5056824;28;20033;-81
2022/03/11 08:15:47;;;;;;;17.85;9.48;;;;;;;8.25;58.36;101226.44;5054664;28;20432;-83
2022/03/11 08:18:12;;;;;;;29.33;9.77;;;;;;;8.35;59.11;101227.59;5058943;28;20035;-83
2022/03/11 08:20:40;;;;;;;22.88;10.30;;;;;;;8.52;59.16;101225.69;5060019;28;20033;-83
2022/03/11 08:23:07;;;;;;;19.23;9.45;;;;;;;8.65;57.89;101238.41;5060151;28;20045;-83
2022/03/11 08:25:33;;;;;;;18.48;9.77;;;;;;;8.70;57.84;101237.25;5059548;28;20395;-82
2022/03/11 08:27:59;;;;;;;24.42;9.50;;;;;;;8.70;58.62;101234.53;5056715;28;20096;-82
2022/03/11 08:30:25;;;;;;;22.58;8.85;;;;;;;8.74;57.50;101242.41;5059256;28;20064;-83
2022/03/11 08:32:52;;;;;;;26.63;9.23;;;;;;;8.93;57.50;101227.53;5061290;28;20129;-84
2022/03/11 08:35:18;;;;;;;23.70;10.18;;;;;;;9.14;57.30;101238.91;5055126;28;20488;-83
2022/03/11 08:37:45;;;;;;;21.38;10.23;;;;;;;9.14;56.60;101222.50;5036352;28;20025;-84
2022/03/11 08:40:12;;;;;;;23.75;9.85;;;;;;;9.37;55.37;101223.69;5041471;28;20607;-83
2022/03/11 08:42:41;;;;;;;23.98;9.73;;;;;;;9.56;55.18;101220.56;5071123;28;20534;-83
2022/03/11 08:45:08;;;;;;;26.33;9.82;;;;;;;9.67;54.76;101220.66;5072538;28;20087;-83
2022/03/11 08:47:34;;;;;;;19.77;9.43;;;;;;;9.85;54.52;101209.44;5056236;28;20072;-82
2022/03/11 08:50:02;;;;;;;24.98;9.55;;;;;;;10.25;54.24;101215.69;5034696;28;20031;-82
2022/03/11 08:52:29;;;;;;;22.20;9.93;;;;;;;10.04;54.77;101204.41;5057065;28;20040;-83
2022/03/11 08:54:57;;;;;;;17.92;9.63;;;;;;;10.52;53.55;101208.34;5040515;28;20488;-83
2022/03/11 08:57:23;;;;;;;36.15;11.18;;;;;;;10.78;53.78;101207.28;5040764;28;20074;-83
2022/03/11 08:59:49;;;;;;;26.73;10.02;;;;;;;10.52;52.57;101213.81;5046842;28;20465;-82
2022/03/11 09:02:15;;;;;;;27.73;11.07;;;;;;;10.71;52.88;101214.22;5050124;28;20032;-82
2022/03/11 09:04:42;;;;;;;23.90;10.70;;;;;;;11.13;51.82;101213.84;5056954;28;20133;-82
2022/03/11 09:07:08;;;;;;;21.63;10.23;;;;;;;11.04;51.44;101216.28;5057601;28;20033;-82
2022/03/11 09:09:36;;;;;;;32.38;10.57;;;;;;;11.06;51.68;101218.91;5038676;28;20025;-82
2022/03/11 09:12:03;;;;;;;32.85;11.43;;;;;;;11.13;50.99;101213.84;5052588;28;20392;-84
2022/03/11 09:14:31;;;;;;;34.53;11.50;;;;;;;10.84;52.33;101195.03;5041495;28;20056;-83
2022/03/11 09:16:58;;;;;;;31.58;10.50;;;;;;;11.22;51.28;101216.75;5058397;28;20476;-83
2022/03/11 09:19:24;;;;;;;28.77;11.27;;;;;;;10.85;52.36;101199.50;5034794;28;20052;-84
2022/03/11 09:21:49;;;;;;;35.10;11.05;;;;;;;11.26;51.16;101192.72;5042160;28;20021;-84
2022/03/11 09:24:16;;;;;;;29.02;11.27;;;;;;;11.47;51.14;101198.44;5041864;28;20041;-83
2022/03/11 09:26:45;;;;;;;26.08;10.77;;;;;;;11.64;50.53;101199.88;5058652;28;20049;-84
2022/03/11 09:29:10;;;;;;;30.60;10.75;;;;;;;11.95;50.16;101184.63;5058919;28;20033;-83
2022/03/11 09:31:35;;;;;;;33.33;11.82;;;;;;;11.85;49.97;101175.34;5046077;28;20036;-84
2022/03/11 09:34:01;;;;;;;24.52;11.02;;;;;;;11.89;50.99;101181.47;5042019;28;20025;-83
2022/03/11 09:36:26;;;;;;;28.63;10.57;;;;;;;12.23;49.33;101179.69;5058276;28;20135;-82
2022/03/11 09:38:52;;;;;;;32.42;11.98;;;;;;;12.14;49.48;101183.16;5059056;28;20051;-82
2022/03/11 09:41:20;;;;;;;35.63;11.18;;;;;;;12.16;49.82;101183.91;5042540;28;20021;-83
2022/03/11 09:43:46;;;;;;;34.08;11.02;;;;;;;11.93;49.94;101175.63;5058818;28;20033;-83
2022/03/11 09:46:13;;;;;;;35.38;10.90;;;;;;;12.10;48.84;101165.16;5058768;28;20062;-83
2022/03/11 09:48:41;;;;;;;33.58;10.38;;;;;;;12.46;48.74;101182.41;5062602;28;20029;-83
2022/03/11 09:51:09;;;;;;;33.78;10.98;;;;;;;12.07;49.16;101173.69;5045259;28;20036;-83
2022/03/11 09:53:35;;;;;;;41.88;11.55;;;;;;;12.28;49.28;101179.28;5078302;28;20392;-83
2022/03/11 09:56:01;;;;;;;27.67;10.27;;;;;;;12.18;48.85;101170.06;5062592;28;20061;-84
2022/03/11 09:58:26;;;;;;;29.88;11.80;;;;;;;11.83;50.33;101179.22;5062457;28;20105;-83
2022/03/11 10:00:52;;;;;;;42.88;11.80;;;;;;;12.36;49.00;101162.19;5063424;28;20036;-83
2022/03/11 10:03:17;;;;;;;34.58;11.43;;;;;;;12.19;48.41;101145.22;5060733;28;20041;-83
2022/03/11 10:05:51;;;;;;;38.20;11.43;;;;;;;12.55;48.26;101158.81;5062441;28;20054;-85
2022/03/11 10:08:35;;;;;;;31.20;11.05;;;;;;;12.12;49.60;101144.84;5062817;28;20056;-83
2022/03/11 10:11:17;;;;;;;42.10;11.88;;;;;;;12.00;48.65;101151.31;5062139;28;20021;-84
2022/03/11 10:13:42;;;;;;;36.22;11.07;;;;;;;12.31;48.30;101141.50;5045668;28;20079;-84
2022/03/11 10:16:30;;;;;;;30.55;10.88;;;;;;;12.33;48.23;101138.63;5039422;28;20047;-84
2022/03/11 10:19:09;;;;;;;45.70;11.68;;;;;;;12.44;48.42;101143.22;5057735;28;20397;-84
2022/03/11 10:21:45;;;;;;;36.97;11.23;;;;;;;12.21;49.12;101117.66;5044485;28;20017;-83
2022/03/11 10:24:13;;;;;;;37.08;12.93;;;;;;;12.45;49.15;101121.13;5061226;28;20159;-83
2022/03/11 10:27:01;;;;;;;38.70;10.75;;;;;;;12.47;49.23;101135.59;5058820;28;20090;-83
2022/03/11 10:29:33;;;;;;;36.85;12.07;;;;;;;12.83;48.54;101127.16;5044800;28;20037;-83
2022/03/11 10:32:00;;;;;;;29.98;10.63;;;;;;;12.91;47.76;101123.75;5077278;28;20099;-83
2022/03/11 10:34:34;;;;;;;39.90;12.20;;;;;;;13.23;47.75;101124.63;5044678;28;20096;-85
2022/03/11 10:37:12;;;;;;;42.95;13.02;;;;;;;12.67;47.25;101133.06;5063529;28;20031;-84
2022/03/11 10:39:39;;;;;;;29.98;11.60;;;;;;;12.59;48.75;101136.47;5059973;28;20075;-84
2022/03/11 10:42:23;;;;;;;38.58;10.93;;;;;;;12.63;49.11;101126.94;5062120;28;20032;-83
2022/03/11 10:45:00;;;;;;;38.53;12.10;;;;;;;13.06;47.99;101120.56;5061352;28;20029;-83
2022/03/11 10:47:31;;;;;;;38.85;12.90;;;;;;;12.83;48.33;101124.41;5043651;28;20041;-84
2022/03/11 10:50:00;;;;;;;42.75;11.73;;;;;;;13.03;47.44;101108.97;5061695;28;20072;-84
2022/03/11 10:52:30;;;;;;;44.53;12.88;;;;;;;13.00;48.08;101118.34;5077508;28;20049;-82
2022/03/11 10:54:56;;;;;;;32.95;11.68;;;;;;;13.05;47.58;101102.34;5045262;28;20484;-83
2022/03/11 10:57:34;;;;;;;30.00;12.18;;;;;;;13.39;48.23;101104.94;5061916;28;20551;-82
2022/03/11 11:00:19;;;;;;;26.30;11.88;;;;;;;13.26;48.34;101112.47;5041533;28;20060;-84
2022/03/11 11:02:46;;;;;;;30.95;12.77;;;;;;;13.44;47.07;101104.53;5061770;28;20033;-83
2022/03/11 11:05:13;;;;;;;42.58;12.30;;;;;;;13.16;47.65;101092.28;5045100;28;20045;-85
2022/03/11 11:07:43;;;;;;;25.48;12.60;;;;;;;13.19;48.14;101097.53;5061455;28;20488;-84
2022/03/11 11:10:11;;;;;;;31.98;12.63;;;;;;;13.18;48.70;101090.28;5060838;28;20037;-84
2022/03/11 11:12:37;;;;;;;30.95;12.80;;;;;;;13.32;48.33;101062.47;5040790;28;20334;-83
2022/03/11 11:15:03;;;;;;;26.23;13.18;;;;;;;13.49;48.58;101079.38;5077302;28;20032;-84
2022/03/11 11:17:30;;;;;;;27.08;13.05;;;;;;;13.62;48.47;101091.03;5077209;28;20558;-84
2022/03/11 11:20:00;;;;;;;27.02;13.45;;;;;;;13.44;48.37;101085.28;5061798;28;20033;-84